Time;durP1;ratioP1;P1;durP2;ratioP2;P2;SDS_P1;SDS_P2;PMS_P1;PMS_P2;Temp;Humidity;BMP_temperature;BMP_pressure;BME280_temperature;BME280_humidity;BME280_pressure;Samples;Min_cycle;Max_cycle;Signal;HPM_P1;HPM_P2
2021/06/06 00:00:32;;;;;;;2.53;2.33;;;19.10;58.00;;;;;;5051127;28;20031;-77
2021/06/06 00:02:59;;;;;;;2.92;2.50;;;19.10;58.10;;;;;;5068389;28;20043;-76
2021/06/06 00:05:37;;;;;;;2.83;2.50;;;19.00;57.90;;;;;;5051656;28;20578;-76
2021/06/06 00:08:04;;;;;;;2.50;2.30;;;19.00;58.10;;;;;;5068597;28;20040;-76
2021/06/06 00:10:30;;;;;;;2.20;2.00;;;19.00;58.00;;;;;;5051754;28;20123;-76
2021/06/06 00:12:56;;;;;;;2.40;2.10;;;19.00;58.10;;;;;;5051130;28;20028;-76
2021/06/06 00:15:22;;;;;;;1.90;1.75;;;19.00;58.20;;;;;;5068154;28;20402;-77
2021/06/06 00:17:48;;;;;;;2.42;2.20;;;19.00;58.30;;;;;;5067240;28;20051;-76
2021/06/06 00:20:14;;;;;;;2.00;1.90;;;19.00;58.30;;;;;;5068234;28;20426;-77
2021/06/06 00:22:41;;;;;;;2.20;2.00;;;19.00;58.40;;;;;;5051283;28;20498;-76
2021/06/06 00:25:10;;;;;;;2.63;2.25;;;18.90;58.30;;;;;;5067769;28;20051;-76
2021/06/06 00:27:36;;;;;;;2.78;2.10;;;18.90;58.30;;;;;;5051224;28;20490;-76
2021/06/06 00:30:06;;;;;;;2.25;2.00;;;18.90;58.30;;;;;;5067522;28;20028;-76
2021/06/06 00:32:33;;;;;;;3.15;1.90;;;18.90;58.40;;;;;;5051412;28;20430;-76
2021/06/06 00:34:59;;;;;;;2.22;1.83;;;18.90;58.50;;;;;;5051174;28;20048;-76
2021/06/06 00:37:26;;;;;;;2.53;2.05;;;18.80;58.30;;;;;;5050798;28;20029;-76
2021/06/06 00:39:52;;;;;;;2.45;1.92;;;18.80;58.40;;;;;;5067232;28;20071;-76
2021/06/06 00:42:23;;;;;;;2.97;2.40;;;18.80;58.50;;;;;;5067698;28;20032;-77
2021/06/06 00:44:54;;;;;;;2.97;2.28;;;18.80;58.50;;;;;;5050901;28;20036;-76
2021/06/06 00:47:21;;;;;;;2.60;2.17;;;18.80;58.60;;;;;;5050392;28;20094;-77
2021/06/06 00:49:48;;;;;;;3.45;2.22;;;18.80;58.60;;;;;;5050684;28;20036;-76
2021/06/06 00:52:17;;;;;;;2.92;2.22;;;18.80;58.70;;;;;;5067739;28;20322;-76
2021/06/06 00:54:47;;;;;;;3.30;2.40;;;18.70;58.50;;;;;;5050384;28;20029;-76
2021/06/06 00:57:20;;;;;;;2.42;2.03;;;18.70;58.60;;;;;;5051003;28;20032;-76
2021/06/06 01:00:04;;;;;;;3.17;2.30;;;18.70;58.70;;;;;;5067457;28;20760;-76
2021/06/06 01:02:34;;;;;;;2.42;2.22;;;18.70;58.70;;;;;;5067173;28;20064;-75
2021/06/06 01:05:08;;;;;;;3.05;2.38;;;18.60;58.50;;;;;;5050953;28;20052;-75
2021/06/06 01:07:35;;;;;;;2.22;2.00;;;18.60;58.60;;;;;;5067108;28;20072;-76
2021/06/06 01:10:03;;;;;;;4.75;2.53;;;18.60;58.60;;;;;;5066488;28;20032;-75
2021/06/06 01:12:33;;;;;;;2.17;1.88;;;18.60;58.70;;;;;;5067969;28;20059;-76
2021/06/06 01:15:11;;;;;;;2.13;2.00;;;18.60;58.80;;;;;;5066616;28;20505;-78
2021/06/06 01:17:54;;;;;;;2.17;1.98;;;18.50;58.60;;;;;;5051265;28;20032;-76
2021/06/06 01:20:52;;;;;;;1.95;1.83;;;18.50;58.70;;;;;;5049301;28;20356;-79
2021/06/06 01:23:45;;;;;;;2.88;2.10;;;18.50;58.70;;;;;;5049716;28;20119;-74
2021/06/06 01:26:24;;;;;;;2.40;2.20;;;18.50;58.70;;;;;;5033388;28;20040;-75
2021/06/06 01:28:55;;;;;;;2.30;2.10;;;18.40;58.60;;;;;;5050041;28;20107;-76
2021/06/06 01:31:24;;;;;;;3.00;2.45;;;18.40;59.20;;;;;;5063098;22;20082;-73
2021/06/06 01:34:01;;;;;;;2.38;2.15;;;18.40;59.20;;;;;;5068023;28;20059;-73
2021/06/06 01:36:32;;;;;;;3.08;2.50;;;18.40;58.80;;;;;;5069112;28;20387;-74
2021/06/06 01:39:01;;;;;;;;;;;18.40;58.80;;;;;;5068136;28;20390;-73
2021/06/06 01:41:37;;;;;;;2.33;2.13;;;18.40;58.60;;;;;;5084430;28;19948;-73
2021/06/06 01:44:13;;;;;;;2.63;2.42;;;18.40;58.60;;;;;;5067622;28;20036;-73
2021/06/06 01:46:45;;;;;;;2.40;2.20;;;18.30;58.60;;;;;;5073813;22;20049;-87
2021/06/06 01:49:14;;;;;;;2.28;1.98;;;18.30;58.60;;;;;;5053813;28;20109;-85
2021/06/06 01:51:50;;;;;;;2.40;2.20;;;18.30;58.70;;;;;;5054257;28;20033;-89
2021/06/06 01:54:20;;;;;;;3.92;2.30;;;18.30;58.90;;;;;;5070770;28;20044;-87
2021/06/06 01:56:50;;;;;;;2.55;2.35;;;18.20;58.70;;;;;;5053686;28;20083;-87
2021/06/06 01:59:39;;;;;;;2.45;2.15;;;18.20;58.70;;;;;;5053605;28;20483;-88
2021/06/06 02:02:06;;;;;;;3.42;2.53;;;18.10;58.70;;;;;;5053851;28;20043;-85
2021/06/06 02:04:35;;;;;;;2.40;2.20;;;18.10;58.60;;;;;;5053489;28;20448;-87
2021/06/06 02:07:11;;;;;;;4.40;2.40;;;18.10;58.70;;;;;;5054534;28;20037;-87
2021/06/06 02:46:34;;;;;;;2.47;2.17;;;17.90;58.50;;;;;;5032987;28;20065;-86
2021/06/06 02:49:08;;;;;;;2.88;2.65;;;17.90;58.40;;;;;;5028943;28;20062;-89
2021/06/06 02:51:42;;;;;;;2.75;2.25;;;17.90;58.50;;;;;;5045604;28;20038;-84
2021/06/06 02:54:15;;;;;;;2.47;2.28;;;17.90;58.70;;;;;;5045412;28;20204;-86
2021/06/06 02:56:52;;;;;;;2.40;2.20;;;17.90;58.90;;;;;;5029132;28;20025;-87
2021/06/06 02:59:25;;;;;;;2.53;2.33;;;17.90;59.00;;;;;;5028425;28;20033;-88
2021/06/06 03:02:00;;;;;;;3.00;2.70;;;17.90;59.00;;;;;;5045720;28;20022;-85
2021/06/06 03:04:32;;;;;;;2.35;2.15;;;17.90;59.10;;;;;;5029044;28;20034;-87
2021/06/06 03:07:10;;;;;;;2.70;2.33;;;17.80;58.90;;;;;;5028106;28;20072;-89
2021/06/06 03:09:39;;;;;;;2.58;2.35;;;17.80;59.00;;;;;;5013440;28;20041;-90
2021/06/06 03:30:06;;;;;;;2.72;2.38;;;17.80;58.90;;;;;;5013714;28;20080;-84
2021/06/06 03:34:26;;;;;;;2.95;2.10;;;17.80;58.90;;;;;;4994477;28;20080;-85
2021/06/06 03:38:58;;;;;;;2.60;2.40;;;17.80;58.90;;;;;;4976175;28;20094;-88
2021/06/06 03:42:09;;;;;;;2.83;2.63;;;17.80;58.90;;;;;;4985637;28;20031;-88
2021/06/06 03:44:41;;;;;;;2.67;2.47;;;17.70;58.70;;;;;;5005932;28;20490;-89
2021/06/06 03:47:07;;;;;;;3.50;2.83;;;17.80;59.10;;;;;;5049337;28;20046;-88
2021/06/06 03:49:34;;;;;;;2.58;2.25;;;17.70;59.00;;;;;;5048871;28;20098;-85
2021/06/06 03:52:04;;;;;;;2.90;2.55;;;17.70;59.10;;;;;;5048861;28;20473;-88
2021/06/06 03:54:30;;;;;;;2.53;2.22;;;17.70;59.20;;;;;;5031864;28;20037;-87
2021/06/06 03:56:57;;;;;;;3.05;2.75;;;17.70;59.20;;;;;;5048337;28;20041;-87
2021/06/06 03:59:26;;;;;;;2.70;2.50;;;17.70;59.30;;;;;;5031719;28;20033;-87
2021/06/06 04:01:53;;;;;;;2.63;2.38;;;17.70;59.40;;;;;;5048665;28;20030;-86
2021/06/06 04:04:22;;;;;;;3.03;2.72;;;17.70;59.40;;;;;;5049427;28;20026;-88
2021/06/06 04:06:48;;;;;;;2.80;2.60;;;17.70;59.50;;;;;;5015118;28;20128;-87
2021/06/06 04:09:16;;;;;;;4.78;2.70;;;17.70;59.50;;;;;;5031933;28;20116;-88
2021/06/06 04:11:43;;;;;;;3.22;2.92;;;17.70;59.50;;;;;;5016150;28;20048;-86
2021/06/06 04:14:16;;;;;;;3.08;2.72;;;17.70;59.60;;;;;;5048813;28;20485;-88
2021/06/06 04:16:48;;;;;;;3.15;2.58;;;17.70;59.60;;;;;;5016253;28;20425;-90
2021/06/06 04:19:14;;;;;;;3.10;2.80;;;17.70;59.60;;;;;;5032373;28;20058;-90
2021/06/06 04:21:41;;;;;;;2.65;2.40;;;17.70;59.60;;;;;;5032306;28;20124;-90
2021/06/06 04:24:08;;;;;;;2.50;2.30;;;17.70;59.60;;;;;;5049498;28;20057;-88
2021/06/06 04:26:35;;;;;;;2.50;2.30;;;17.70;59.60;;;;;;5031307;28;20125;-90
2021/06/06 04:29:02;;;;;;;2.70;2.50;;;17.70;59.70;;;;;;5016937;28;20060;-89
2021/06/06 04:31:32;;;;;;;2.70;2.50;;;17.70;59.70;;;;;;5048450;28;20462;-89
2021/06/06 04:34:03;;;;;;;2.90;2.65;;;17.70;59.70;;;;;;5030809;28;20382;-88
2021/06/06 04:36:31;;;;;;;3.08;2.60;;;17.70;59.70;;;;;;5031623;28;20026;-88
2021/06/06 04:39:00;;;;;;;2.65;2.40;;;17.70;59.70;;;;;;5048128;28;20026;-89
2021/06/06 04:41:32;;;;;;;2.60;2.40;;;17.70;59.70;;;;;;5048382;28;20539;-89
2021/06/06 04:43:59;;;;;;;4.10;2.90;;;17.70;59.70;;;;;;5014641;28;20034;-87
2021/06/06 04:46:26;;;;;;;3.15;2.85;;;17.80;59.90;;;;;;5030963;28;20506;-89
2021/06/06 04:48:54;;;;;;;2.90;2.60;;;17.80;60.00;;;;;;5027081;28;20045;-89
2021/06/06 04:51:24;;;;;;;2.67;2.47;;;17.80;60.50;;;;;;5046222;28;20117;-90
2021/06/06 04:54:09;;;;;;;3.10;2.80;;;17.80;59.90;;;;;;5012608;28;20168;-88
2021/06/06 04:56:35;;;;;;;2.72;2.42;;;17.80;59.90;;;;;;5045534;28;20033;-89
2021/06/06 04:59:04;;;;;;;4.35;2.60;;;17.80;59.90;;;;;;5012295;28;20363;-88
2021/06/06 05:01:32;;;;;;;3.15;2.85;;;17.80;59.90;;;;;;4997300;28;20037;-91
2021/06/06 05:04:02;;;;;;;3.00;2.70;;;17.80;59.90;;;;;;5027390;28;20022;-88
2021/06/06 05:06:29;;;;;;;2.83;2.42;;;17.80;59.90;;;;;;5028058;28;20447;-91
2021/06/06 05:09:00;;;;;;;3.15;2.85;;;17.80;59.90;;;;;;5044560;28;20057;-91
2021/06/06 05:11:27;;;;;;;2.80;2.60;;;17.80;59.90;;;;;;5010103;28;20030;-91
2021/06/06 05:13:54;;;;;;;2.65;2.45;;;17.80;59.90;;;;;;5011988;28;20034;-90
2021/06/06 05:16:21;;;;;;;3.45;3.13;;;17.80;59.90;;;;;;5010619;28;20026;-89
2021/06/06 05:18:48;;;;;;;2.60;2.40;;;17.80;59.90;;;;;;5009848;28;20026;-89
2021/06/06 05:21:15;;;;;;;3.30;3.00;;;17.90;60.10;;;;;;5010285;28;20206;-88
2021/06/06 05:23:43;;;;;;;3.22;3.00;;;17.90;60.00;;;;;;5010692;28;20128;-89
2021/06/06 05:26:12;;;;;;;3.92;2.65;;;17.90;60.00;;;;;;5010278;28;20092;-90
2021/06/06 05:28:43;;;;;;;3.60;3.15;;;17.90;60.00;;;;;;5007143;28;20026;-88
2021/06/06 05:31:10;;;;;;;2.50;2.30;;;18.00;60.10;;;;;;5024273;28;20041;-88
2021/06/06 05:33:36;;;;;;;3.53;2.92;;;18.00;60.10;;;;;;5037105;28;20025;-91
2021/06/06 05:36:05;;;;;;;3.17;2.70;;;18.00;60.00;;;;;;5030154;28;20037;-90
2021/06/06 05:38:32;;;;;;;3.13;2.85;;;18.00;60.00;;;;;;5046703;28;20037;-90
2021/06/06 05:41:00;;;;;;;3.10;2.90;;;18.00;60.00;;;;;;5029148;28;20022;-90
2021/06/06 05:43:27;;;;;;;3.25;2.95;;;18.00;60.00;;;;;;5014329;28;20137;-91
2021/06/06 05:45:54;;;;;;;3.15;2.85;;;18.10;60.20;;;;;;5012343;28;20034;-90
2021/06/06 05:48:21;;;;;;;3.30;3.00;;;18.00;60.00;;;;;;5041964;28;20128;-90
2021/06/06 05:50:52;;;;;;;3.00;2.80;;;18.10;60.20;;;;;;5048640;28;20037;-93
2021/06/06 05:53:37;;;;;;;3.30;2.72;;;18.00;60.00;;;;;;5030318;28;20048;-91
2021/06/06 05:56:05;;;;;;;3.28;2.97;;;18.00;60.00;;;;;;5046091;28;20036;-90
2021/06/06 05:58:32;;;;;;;3.20;2.90;;;18.10;60.20;;;;;;5030189;28;20029;-92
2021/06/06 06:01:00;;;;;;;3.15;2.88;;;18.00;60.00;;;;;;5030296;28;20096;-92
2021/06/06 06:03:26;;;;;;;2.80;2.60;;;18.10;60.30;;;;;;5030912;28;20029;-92
2021/06/06 06:05:54;;;;;;;3.33;3.03;;;18.00;60.10;;;;;;5047379;28;20057;-90
2021/06/06 06:08:49;;;;;;;3.20;2.45;;;18.10;60.30;;;;;;5030868;28;20030;-89
2021/06/06 06:11:18;;;;;;;2.90;2.60;;;18.10;60.30;;;;;;5029548;28;20040;-91
2021/06/06 06:13:45;;;;;;;2.83;2.50;;;18.10;60.20;;;;;;5046053;28;20025;-92
2021/06/06 06:16:23;;;;;;;2.70;2.50;;;18.10;60.10;;;;;;5029429;28;20496;-89
2021/06/06 06:18:51;;;;;;;2.80;2.47;;;18.20;60.30;;;;;;5045391;28;20037;-89
2021/06/06 06:21:18;;;;;;;2.70;2.50;;;18.30;60.40;;;;;;5028433;28;20037;-88
2021/06/06 06:23:44;;;;;;;2.85;2.65;;;18.20;60.10;;;;;;5030090;28;20029;-90
2021/06/06 06:26:11;;;;;;;2.85;2.65;;;18.30;60.30;;;;;;5029168;28;20091;-91
2021/06/06 06:28:46;;;;;;;2.72;2.53;;;18.30;60.20;;;;;;5025550;28;20124;-89
2021/06/06 06:31:30;;;;;;;3.40;2.42;;;18.30;60.20;;;;;;5045960;28;20260;-89
2021/06/06 06:34:00;;;;;;;2.40;2.20;;;18.30;60.20;;;;;;5029606;28;20072;-87
2021/06/06 06:36:26;;;;;;;2.65;2.45;;;18.30;60.10;;;;;;5033196;28;20029;-91
2021/06/06 06:38:53;;;;;;;3.08;2.63;;;18.40;60.50;;;;;;5027607;28;20034;-90
2021/06/06 06:41:26;;;;;;;3.20;2.90;;;18.40;60.80;;;;;;5025872;28;20104;-91
2021/06/06 06:43:52;;;;;;;2.88;2.65;;;18.50;61.20;;;;;;5046161;28;20025;-91
2021/06/06 06:46:19;;;;;;;2.80;2.60;;;18.40;61.00;;;;;;5045719;28;20043;-88
2021/06/06 06:48:46;;;;;;;5.53;2.83;;;18.50;61.30;;;;;;5025786;28;20188;-92
2021/06/06 06:51:13;;;;;;;3.08;2.88;;;18.50;61.40;;;;;;5026283;28;20080;-93
2021/06/06 06:53:39;;;;;;;3.30;3.00;;;18.60;61.70;;;;;;5031733;28;20128;-94
2021/06/06 06:56:05;;;;;;;3.65;3.35;;;18.60;62.10;;;;;;5038717;28;20172;-96
2021/06/06 06:58:31;;;;;;;4.03;3.63;;;18.70;62.80;;;;;;5046495;28;20063;-93
2021/06/06 07:00:58;;;;;;;3.58;3.28;;;18.80;63.40;;;;;;5063583;22;20052;-75
2021/06/06 07:03:27;;;;;;;3.13;2.88;;;18.90;63.90;;;;;;5045832;28;20025;-74
2021/06/06 07:05:54;;;;;;;3.95;3.47;;;19.00;64.30;;;;;;5046097;28;20521;-75
2021/06/06 07:08:24;;;;;;;3.83;3.42;;;19.00;64.40;;;;;;5061507;28;20021;-74
2021/06/06 07:10:51;;;;;;;3.50;3.20;;;19.10;64.80;;;;;;5046452;28;20025;-75
2021/06/06 07:13:17;;;;;;;3.67;3.33;;;19.10;64.80;;;;;;5045464;28;20471;-73
2021/06/06 07:15:43;;;;;;;3.38;3.08;;;19.20;65.20;;;;;;5046288;28;20517;-74
2021/06/06 07:18:17;;;;;;;4.35;3.50;;;19.20;65.40;;;;;;5039066;28;20179;-73
2021/06/06 07:20:44;;;;;;;4.72;3.47;;;19.20;65.70;;;;;;5025617;28;20495;-73
2021/06/06 07:23:12;;;;;;;3.40;3.10;;;19.30;65.90;;;;;;5026038;28;20041;-75
2021/06/06 07:25:40;;;;;;;3.65;3.33;;;19.30;66.00;;;;;;5025660;28;20383;-73
2021/06/06 07:28:07;;;;;;;3.50;3.20;;;19.50;66.50;;;;;;5025437;28;20036;-75
2021/06/06 07:30:41;;;;;;;3.20;2.85;;;19.50;66.50;;;;;;5025093;28;20038;-74
2021/06/06 07:33:08;;;;;;;5.15;2.65;;;19.60;66.80;;;;;;5025759;28;20033;-74
2021/06/06 07:35:36;;;;;;;3.20;2.90;;;19.70;66.70;;;;;;5026248;28;20057;-75
2021/06/06 07:38:03;;;;;;;3.45;2.45;;;19.90;67.10;;;;;;5025608;28;20037;-75
2021/06/06 07:40:33;;;;;;;3.75;2.75;;;20.00;67.10;;;;;;5024624;28;20033;-72
2021/06/06 07:42:59;;;;;;;3.97;2.95;;;20.10;67.20;;;;;;5026394;28;20056;-73
2021/06/06 07:45:28;;;;;;;2.95;2.63;;;20.30;67.30;;;;;;5026032;28;20029;-74
2021/06/06 07:47:54;;;;;;;2.97;2.78;;;20.40;67.30;;;;;;5025030;28;20044;-75
2021/06/06 07:50:26;;;;;;;2.65;2.45;;;20.60;67.30;;;;;;5025617;28;20029;-74
2021/06/06 07:52:52;;;;;;;3.25;2.40;;;20.70;67.30;;;;;;5025318;28;20076;-73
2021/06/06 07:55:21;;;;;;;4.15;2.50;;;20.80;67.10;;;;;;5025341;28;20141;-73
2021/06/06 07:57:48;;;;;;;2.45;2.25;;;20.90;66.90;;;;;;5024656;28;20029;-73
2021/06/06 08:00:23;;;;;;;2.10;2.00;;;21.10;66.90;;;;;;5024286;28;20356;-73
2021/06/06 08:02:49;;;;;;;3.83;2.45;;;21.20;66.90;;;;;;5024979;28;20073;-72
2021/06/06 08:05:17;;;;;;;2.13;2.03;;;21.40;66.90;;;;;;5025492;28;20100;-72
2021/06/06 08:07:43;;;;;;;2.47;2.28;;;21.50;66.70;;;;;;5007317;28;20044;-73
2021/06/06 08:10:13;;;;;;;2.00;1.90;;;21.70;66.80;;;;;;5025406;28;20025;-73
2021/06/06 08:12:40;;;;;;;2.33;2.08;;;21.90;66.70;;;;;;5025038;28;20041;-73
2021/06/06 08:15:08;;;;;;;2.45;2.25;;;22.10;66.50;;;;;;5024383;28;20025;-72
2021/06/06 08:17:34;;;;;;;2.45;2.25;;;22.20;66.30;;;;;;5025528;28;20033;-72
2021/06/06 08:20:01;;;;;;;2.45;2.25;;;22.30;66.10;;;;;;5027924;28;20033;-73
2021/06/06 08:22:27;;;;;;;3.72;2.00;;;22.40;66.00;;;;;;5028834;28;20375;-73
2021/06/06 08:24:53;;;;;;;2.60;2.20;;;22.40;65.80;;;;;;5029285;28;20239;-73
2021/06/06 08:27:19;;;;;;;2.30;2.10;;;22.50;65.80;;;;;;5028704;28;20446;-73
2021/06/06 08:29:45;;;;;;;2.45;2.25;;;22.60;65.70;;;;;;5027540;28;20033;-72
2021/06/06 08:32:12;;;;;;;2.38;2.17;;;22.60;65.60;;;;;;5028347;28;20052;-73
2021/06/06 08:34:38;;;;;;;2.38;2.17;;;22.60;65.40;;;;;;5027803;28;20030;-72
2021/06/06 08:37:05;;;;;;;2.88;2.40;;;22.70;65.40;;;;;;5026912;28;20048;-72
2021/06/06 08:39:34;;;;;;;2.85;2.42;;;22.80;65.50;;;;;;5028064;28;20479;-72
2021/06/06 08:42:11;;;;;;;8.40;2.85;;;22.80;65.20;;;;;;5027007;28;20034;-73
2021/06/06 08:44:43;;;;;;;9.55;3.67;;;22.90;65.20;;;;;;5027510;28;20090;-73
2021/06/06 08:47:25;;;;;;;7.20;3.63;;;23.10;65.10;;;;;;5028262;28;20123;-73
2021/06/06 08:49:56;;;;;;;7.18;4.35;;;23.90;64.80;;;;;;5028258;28;20037;-73
2021/06/06 08:52:28;;;;;;;40.42;18.75;;;24.60;63.90;;;;;;5027699;28;20084;-73
2021/06/06 08:55:30;;;;;;;38.63;19.35;;;24.70;63.40;;;;;;5028657;28;20049;-73
2021/06/06 08:58:08;;;;;;;24.88;14.60;;;24.70;63.50;;;;;;5014885;28;20045;-74
2021/06/06 09:00:39;;;;;;;36.05;15.23;;;24.70;63.60;;;;;;5047813;28;20033;-75
2021/06/06 09:03:11;;;;;;;32.05;14.55;;;24.70;63.80;;;;;;5047706;28;20200;-73
2021/06/06 09:05:40;;;;;;;32.47;14.88;;;24.90;64.10;;;;;;5048428;28;20036;-73
2021/06/06 09:08:13;;;;;;;23.13;13.85;;;25.10;63.70;;;;;;5046685;28;20051;-74
2021/06/06 09:10:51;;;;;;;24.83;13.02;;;25.30;63.30;;;;;;5047855;28;20037;-73
2021/06/06 09:13:17;;;;;;;19.77;12.57;;;25.30;63.00;;;;;;5048331;28;20842;-74
2021/06/06 09:15:43;;;;;;;26.35;13.30;;;25.40;63.50;;;;;;5046492;28;20028;-73
2021/06/06 09:18:22;;;;;;;21.33;13.95;;;25.50;62.90;;;;;;5047533;28;20472;-73
2021/06/06 09:20:50;;;;;;;19.98;11.52;;;25.60;62.70;;;;;;5046965;28;20037;-76
2021/06/06 09:23:19;;;;;;;22.85;12.88;;;25.70;62.60;;;;;;5047226;28;20483;-74
2021/06/06 09:25:58;;;;;;;26.13;12.68;;;25.70;62.50;;;;;;5045449;28;20052;-73
2021/06/06 09:28:27;;;;;;;23.33;12.30;;;25.80;62.30;;;;;;5047542;28;20064;-75
2021/06/06 09:31:19;;;;;;;20.40;12.35;;;25.90;62.30;;;;;;5034546;28;20040;-75
2021/06/06 09:34:02;;;;;;;22.30;11.70;;;26.00;62.10;;;;;;5027559;28;20086;-74
2021/06/06 09:36:35;;;;;;;20.60;11.10;;;26.10;61.90;;;;;;5027896;28;20190;-73
2021/06/06 09:39:01;;;;;;;;;;;26.10;61.70;;;;;;5028275;28;20094;-73
2021/06/06 09:41:34;;;;;;;18.15;10.80;;;26.20;62.40;;;;;;5026868;28;19939;-73
2021/06/06 09:44:11;;;;;;;23.80;11.27;;;26.30;61.60;;;;;;5046938;28;20021;-75
2021/06/06 09:46:51;;;;;;;19.52;10.85;;;26.30;61.40;;;;;;5047732;28;20080;-75
2021/06/06 09:49:23;;;;;;;19.65;10.60;;;26.40;61.30;;;;;;5047384;28;20540;-73
2021/06/06 09:51:49;;;;;;;17.77;11.07;;;26.40;61.10;;;;;;5029618;28;20041;-73
2021/06/06 09:54:27;;;;;;;22.80;11.25;;;26.50;61.10;;;;;;5038337;28;20051;-73
2021/06/06 09:56:56;;;;;;;14.88;10.43;;;26.70;60.90;;;;;;5047472;28;20490;-72
2021/06/06 09:59:28;;;;;;;18.90;11.82;;;26.80;60.70;;;;;;5027659;28;20112;-73
2021/06/06 10:02:00;;;;;;;17.08;12.40;;;26.90;60.50;;;;;;5027226;28;20057;-72
2021/06/06 10:04:33;;;;;;;13.73;10.87;;;27.00;60.20;;;;;;5026894;28;20026;-73
2021/06/06 10:07:37;;;;;;;13.27;9.57;;;27.10;60.10;;;;;;5033313;28;20294;-74
2021/06/06 10:10:22;;;;;;;20.20;10.02;;;27.20;60.00;;;;;;5041253;28;20185;-74
2021/06/06 10:12:49;;;;;;;15.32;9.48;;;27.40;59.90;;;;;;5047106;28;20037;-73
2021/06/06 10:15:49;;;;;;;18.38;9.40;;;27.60;59.60;;;;;;5046322;28;20095;-75
2021/06/06 10:18:22;;;;;;;13.35;9.40;;;27.70;59.30;;;;;;5025614;28;20128;-74
2021/06/06 10:20:54;;;;;;;15.30;8.03;;;27.90;59.00;;;;;;5046516;28;20070;-72
2021/06/06 10:23:29;;;;;;;13.05;8.23;;;28.00;58.70;;;;;;5045023;28;20125;-74
2021/06/06 10:26:14;;;;;;;13.60;8.50;;;28.10;58.50;;;;;;5046566;28;20029;-74
2021/06/06 10:29:09;;;;;;;11.32;7.40;;;28.20;58.40;;;;;;5035286;28;20022;-73
2021/06/06 10:31:39;;;;;;;12.52;8.00;;;28.30;58.20;;;;;;5025030;28;20124;-74
2021/06/06 10:34:53;;;;;;;10.75;7.72;;;28.60;57.90;;;;;;5026173;28;20034;-73
2021/06/06 10:37:19;;;;;;;12.38;7.15;;;28.80;57.50;;;;;;4987294;28;20125;-74
2021/06/06 10:40:03;;;;;;;9.18;7.20;;;29.00;57.10;;;;;;4985463;28;20023;-73
2021/06/06 10:42:33;;;;;;;10.52;7.57;;;29.20;56.80;;;;;;5011131;28;20121;-73
2021/06/06 10:45:02;;;;;;;10.57;7.03;;;29.40;56.40;;;;;;5008677;28;20468;-74
2021/06/06 10:48:02;;;;;;;9.15;6.88;;;29.60;56.30;;;;;;5026477;28;20069;-73
2021/06/06 10:50:32;;;;;;;13.27;11.45;;;29.70;55.80;;;;;;5008233;28;20503;-74
2021/06/06 10:53:12;;;;;;;10.65;8.13;;;29.90;55.70;;;;;;5024707;28;20194;-74
2021/06/06 10:56:10;;;;;;;10.23;7.63;;;30.10;55.40;;;;;;5025270;28;20039;-73
2021/06/06 10:58:38;;;;;;;9.23;6.78;;;30.30;55.20;;;;;;5007255;28;20091;-72
2021/06/06 11:01:19;;;;;;;7.88;6.95;;;30.50;54.90;;;;;;5041022;28;20041;-74
2021/06/06 11:03:48;;;;;;;10.15;7.35;;;30.70;54.40;;;;;;5044372;28;20036;-76
2021/06/06 11:06:43;;;;;;;9.25;7.05;;;30.80;54.30;;;;;;5044360;28;20221;-74
2021/06/06 11:09:29;;;;;;;8.75;6.63;;;30.70;54.30;;;;;;5044440;28;20029;-73
2021/06/06 11:12:03;;;;;;;7.78;6.43;;;30.70;54.30;;;;;;5044096;28;20033;-73
2021/06/06 11:14:37;;;;;;;7.20;6.10;;;30.80;54.20;;;;;;5044445;28;20029;-76
2021/06/06 11:17:13;;;;;;;7.85;6.25;;;31.10;54.00;;;;;;5045605;28;20040;-75
2021/06/06 11:19:39;;;;;;;6.60;5.32;;;31.20;53.50;;;;;;5028458;28;20030;-73
2021/06/06 11:22:24;;;;;;;6.13;5.45;;;31.20;53.40;;;;;;5024464;28;20033;-73
2021/06/06 11:24:52;;;;;;;7.88;6.00;;;31.30;53.30;;;;;;5023990;28;20491;-73
2021/06/06 11:27:22;;;;;;;6.78;5.18;;;31.50;53.30;;;;;;5025291;28;20034;-73
2021/06/06 11:29:53;;;;;;;8.00;6.10;;;31.70;53.00;;;;;;5025919;28;20034;-73
2021/06/06 11:32:38;;;;;;;6.32;5.10;;;32.00;52.70;;;;;;5024541;28;20044;-73
2021/06/06 11:35:18;;;;;;;6.70;5.25;;;32.20;52.30;;;;;;5044015;28;20052;-74
2021/06/06 11:37:51;;;;;;;7.97;5.60;;;32.30;52.10;;;;;;5044107;28;20532;-75
2021/06/06 11:40:41;;;;;;;5.72;5.00;;;32.50;52.00;;;;;;5044578;28;20029;-75
2021/06/06 11:43:27;;;;;;;6.57;5.32;;;32.70;51.70;;;;;;5045368;28;20456;-73
2021/06/06 11:45:56;;;;;;;6.35;4.68;;;32.90;51.50;;;;;;5044211;28;20360;-74
2021/06/06 11:48:36;;;;;;;6.00;4.75;;;32.80;51.20;;;;;;5045438;28;20117;-73
2021/06/06 11:51:12;;;;;;;7.35;5.28;;;32.80;51.30;;;;;;5045458;28;20059;-73
2021/06/06 11:53:42;;;;;;;5.18;4.68;;;32.70;51.30;;;;;;5046701;28;20032;-73
2021/06/06 11:56:16;;;;;;;5.53;4.10;;;32.60;51.40;;;;;;5048003;28;20033;-74
2021/06/06 11:58:52;;;;;;;6.35;4.20;;;32.50;51.40;;;;;;5047878;28;20032;-76
2021/06/06 12:01:25;;;;;;;5.95;4.47;;;32.30;51.60;;;;;;5049487;28;20061;-73
2021/06/06 12:03:53;;;;;;;5.32;4.70;;;32.20;51.80;;;;;;5049263;28;20071;-73
2021/06/06 12:06:19;;;;;;;5.80;4.47;;;32.10;52.00;;;;;;5048879;28;20048;-74
2021/06/06 12:09:12;;;;;;;5.10;4.22;;;32.00;52.10;;;;;;5047683;28;20033;-73
2021/06/06 12:11:39;;;;;;;4.20;3.80;;;32.00;52.10;;;;;;5049048;28;20021;-73
2021/06/06 12:14:11;;;;;;;5.47;4.32;;;32.10;52.20;;;;;;5049489;28;20036;-74
2021/06/06 12:17:04;;;;;;;6.17;4.10;;;32.20;52.10;;;;;;5048228;28;20183;-75
2021/06/06 12:19:55;;;;;;;5.03;4.40;;;32.20;51.90;;;;;;5047818;28;20021;-74
2021/06/06 12:22:37;;;;;;;4.93;4.13;;;32.40;51.90;;;;;;5047599;28;20052;-73
2021/06/06 12:25:14;;;;;;;3.97;3.58;;;32.40;51.80;;;;;;5025711;28;20022;-74
2021/06/06 12:28:06;;;;;;;4.25;3.45;;;32.50;51.70;;;;;;5035838;28;20399;-73
2021/06/06 12:30:36;;;;;;;4.80;3.55;;;32.60;51.70;;;;;;5040129;28;20490;-73
2021/06/06 12:33:18;;;;;;;4.63;3.65;;;32.70;51.60;;;;;;5029892;28;20029;-74
2021/06/06 12:35:49;;;;;;;4.37;3.90;;;32.80;51.50;;;;;;5047333;28;20506;-74
2021/06/06 12:38:17;;;;;;;3.85;3.45;;;33.00;51.40;;;;;;5047533;28;20697;-74
2021/06/06 12:40:44;;;;;;;4.38;3.75;;;33.20;51.30;;;;;;5048755;28;20029;-74
2021/06/06 12:43:12;;;;;;;3.63;3.28;;;33.30;51.00;;;;;;5048824;28;20103;-74
2021/06/06 12:45:44;;;;;;;4.18;3.28;;;33.50;50.90;;;;;;5048191;28;20075;-73
2021/06/06 12:48:52;;;;;;;3.78;3.30;;;33.60;50.80;;;;;;5048078;28;20123;-72
2021/06/06 12:51:25;;;;;;;5.22;1.70;;;33.80;50.60;;;;;;5048547;28;20020;-75
2021/06/06 12:53:52;;;;;;;4.53;2.40;;;33.80;48.30;;;;;;5046649;28;20060;-73
2021/06/06 12:56:27;;;;;;;3.80;2.30;;;33.60;48.30;;;;;;5048077;28;20116;-74
2021/06/06 12:59:04;;;;;;;2.47;1.90;;;33.40;48.00;;;;;;5047883;28;20025;-73
2021/06/06 13:01:31;;;;;;;3.65;1.92;;;33.30;48.00;;;;;;5030499;28;20102;-75
2021/06/06 13:04:10;;;;;;;2.50;2.05;;;33.10;47.80;;;;;;5047921;28;20495;-73
2021/06/06 13:06:40;;;;;;;2.00;1.80;;;33.00;47.40;;;;;;5046217;28;20509;-74
2021/06/06 13:09:14;;;;;;;1.98;1.50;;;32.80;47.50;;;;;;5047620;28;20488;-73
2021/06/06 13:11:40;;;;;;;2.33;2.08;;;32.60;47.40;;;;;;5030171;28;20470;-73
2021/06/06 13:14:40;;;;;;;3.15;1.98;;;32.50;47.70;;;;;;5047725;28;20033;-76
2021/06/06 13:17:23;;;;;;;1.92;1.63;;;32.40;47.70;;;;;;5040216;28;20037;-74
2021/06/06 13:19:50;;;;;;;2.10;1.63;;;32.40;47.70;;;;;;5046342;28;20044;-74
2021/06/06 13:22:27;;;;;;;2.00;1.80;;;32.40;47.70;;;;;;5047550;28;20029;-73
2021/06/06 13:24:54;;;;;;;2.63;2.05;;;32.60;47.50;;;;;;5046517;28;20597;-73
2021/06/06 13:27:23;;;;;;;1.92;1.48;;;32.70;47.40;;;;;;5046125;28;20377;-73
2021/06/06 13:29:52;;;;;;;2.38;2.10;;;32.80;47.80;;;;;;5047428;28;20033;-72
2021/06/06 13:32:31;;;;;;;1.95;1.60;;;32.90;47.30;;;;;;5045293;28;20246;-72
2021/06/06 13:35:00;;;;;;;3.97;1.60;;;32.90;46.90;;;;;;5047532;28;20472;-73
2021/06/06 13:37:30;;;;;;;1.77;1.60;;;33.10;46.80;;;;;;5042499;28;20079;-73
2021/06/06 13:40:16;;;;;;;1.60;1.50;;;33.20;46.60;;;;;;5036178;28;20025;-73
2021/06/06 13:42:42;;;;;;;2.03;1.80;;;33.10;46.30;;;;;;5026131;28;20091;-73
2021/06/06 13:45:09;;;;;;;2.58;1.92;;;33.00;46.40;;;;;;5027909;28;20033;-73
2021/06/06 13:47:36;;;;;;;1.75;1.65;;;32.80;47.00;;;;;;5009992;28;20068;-74
2021/06/06 13:50:05;;;;;;;4.05;2.00;;;32.50;46.50;;;;;;5026472;28;20349;-74
2021/06/06 13:52:31;;;;;;;1.55;1.45;;;32.50;46.80;;;;;;5026960;28;20041;-74
2021/06/06 13:54:58;;;;;;;2.90;1.58;;;32.50;46.80;;;;;;5027602;28;20021;-74
2021/06/06 13:57:24;;;;;;;1.70;1.58;;;32.60;46.70;;;;;;5025948;28;20052;-73
2021/06/06 13:59:49;;;;;;;1.90;1.52;;;32.80;46.60;;;;;;5025557;28;20029;-73
2021/06/06 14:02:18;;;;;;;1.80;1.70;;;32.90;46.40;;;;;;5025786;28;20072;-74
2021/06/06 14:04:44;;;;;;;1.30;1.20;;;32.80;46.20;;;;;;5009158;28;20025;-73
2021/06/06 14:07:10;;;;;;;2.83;1.60;;;32.80;46.20;;;;;;5025941;28;20037;-74
2021/06/06 14:09:37;;;;;;;1.85;1.50;;;32.70;46.20;;;;;;5025895;28;20120;-75